Flight Track Log - Related Links

Times and Time Zones

All times are in EDT time to prevent confusion due to time zone crossing. See the EGF2799 flight status page for this flight to view local times or setup timezone preferences in your user account.

Time Position Orientation Groundspeed Altitude Reporting Facility
EDT Latitude Longitude Course Direction KTS MPH feet Rate Location/Type
Thu 10:32:32 AM 32.8437 -97.0492 358° North  Level FlightAware Approximate
Thu 10:33:08 AM 32.8875 -97.0506 243° Southwest 155 178 1,400  Level FAA TRACON SMA TRACON (SMA)
Thu 10:37:08 AM 32.7958 -97.2661 308° West 321 369 10,500 2,215 Climbing FAA TRACON SMA TRACON (SMA)
Thu 10:37:47 AM 32.8319 -97.3211 307° West 342 394 11,700 1,671 Climbing FAA TRACON SMA TRACON (SMA)
Thu 10:38:27 AM 32.8739 -97.3867 308° West 360 414 12,700 1,575 Climbing FAA TRACON SMA TRACON (SMA)
Thu 10:39:07 AM 32.9128 -97.4467 307° West 372 428 13,800 1,800 Climbing FAA TRACON SMA TRACON (SMA)
Thu 10:39:47 AM 32.9561 -97.5161 307° West 380 437 15,100 1,950 Climbing FAA TRACON SMA TRACON (SMA)
Thu 10:40:27 AM 32.9994 -97.5858 307° West 379 436 16,400 1,704 Climbing FAA TRACON SMA TRACON (SMA)
Thu 10:41:08 AM 33.0436 -97.6569 306° West 386 444 17,400 1,407 Climbing FAA TRACON SMA TRACON (SMA)
Thu 10:41:48 AM 33.0833 -97.7211 296° West 391 450 18,300 1,538 Climbing FAA TRACON SMA TRACON (SMA)
Thu 10:42:26 AM 33.1164 -97.8025 290° West 396 456 19,400 1,443 Climbing FAA TRACON SMA TRACON (SMA)
Thu 10:43:07 AM 33.1394 -97.8792 290° West 401 461 20,200 1,407 Climbing FAA TRACON SMA TRACON (SMA)
Thu 10:43:47 AM 33.1664 -97.9678 291° West 411 473 21,300 1,575 Climbing FAA TRACON SMA TRACON (SMA)
Thu 10:44:27 AM 33.1944 -98.0572 291° West 417 480 22,300 1,425 Climbing FAA TRACON SMA TRACON (SMA)
Thu 10:45:07 AM 33.2203 -98.1369 289° West 420 483 23,200 1,385 Climbing FAA TRACON SMA TRACON (SMA)
Thu 10:45:58 AM 33.2522 -98.2456 290° West 433 498 24,400 1,255 Climbing Fort Worth Center
Thu 10:46:57 AM 33.2950 -98.3878 292° West 428 493 25,500 807 Climbing Fort Worth Center
Thu 10:47:57 AM 33.3397 -98.5225 291° West 428 493 26,000 250 Climbing Fort Worth Center
Thu 10:48:57 AM 33.3825 -98.6597 290° West 440 506 26,000  Level Fort Worth Center
Thu 10:49:57 AM 33.4247 -98.8022 291° West 452 520 26,000  Level Fort Worth Center
Thu 10:50:57 AM 33.4689 -98.9425 290° West 452 520 26,000  Level Fort Worth Center
Thu 10:51:57 AM 33.5111 -99.0850 290° West 452 520 26,000  Level Fort Worth Center
Thu 10:52:57 AM 33.5528 -99.2256 302° West 452 520 26,000  Level Fort Worth Center
Thu 10:53:58 AM 33.6197 -99.3567 311° West 452 520 26,000  Level Fort Worth Center
Thu 10:55:09 AM 33.7036 -99.4708 311° West 457 526 26,000  Level Fort Worth Center
Thu 10:56:09 AM 33.8056 -99.6133 310° West 463 533 26,000  Level Fort Worth Center
Thu 10:57:09 AM 33.8889 -99.7328 311° West 463 533 26,000  Level Fort Worth Center
Thu 10:58:09 AM 33.9722 -99.8503 310° West 463 533 26,000  Level Fort Worth Center
Thu 10:59:09 AM 34.0575 -99.9731 310° West 469 540 26,000  Level Fort Worth Center
Thu 11:00:09 AM 34.1425 -100.0961 311° West 469 540 26,000  Level Fort Worth Center
Thu 11:01:55 AM 34.2917 -100.3075 309° West 466 536 26,000 -36 Level Albuquerque Center
Thu 11:02:55 AM 34.3739 -100.4289 310° West 466 536 25,900 -650 Descending Albuquerque Center
Thu 11:03:55 AM 34.4581 -100.5503 310° West 472 543 24,700 -1,850 Descending Albuquerque Center
Thu 11:04:55 AM 34.5397 -100.6669 309° West 472 543 22,200 -2,500 Descending Albuquerque Center
Thu 11:05:55 AM 34.6172 -100.7817 310° West 467 537 19,700 -2,500 Descending Albuquerque Center
Thu 11:06:55 AM 34.6919 -100.8919 310° West 452 520 17,200 -2,500 Descending Albuquerque Center
Thu 11:07:55 AM 34.7667 -100.9997 310° West 435 501 14,700 -2,550 Descending Albuquerque Center
Thu 11:08:55 AM 34.8367 -101.1031 313° West 418 481 12,100 -1,950 Descending Albuquerque Center
Thu 11:09:55 AM 34.9061 -101.1942 314° West 399 459 10,800 -850 Descending Albuquerque Center
Thu 11:10:55 AM 34.9775 -101.2850 315° West 380 437 10,400 -350 Descending Albuquerque Center
Thu 11:11:55 AM 35.0486 -101.3708 315° West 368 423 10,100 -300 Descending Albuquerque Center

Login

Don't have an account? Register now (free) for customized features, flight alerts, and more!